Time;durP1;ratioP1;P1;durP2;ratioP2;P2;SDS_P1;SDS_P2;PMS_P1;PMS_P2;Temp;Humidity;BMP_temperature;BMP_pressure;BME280_temperature;BME280_humidity;BME280_pressure;Samples;Min_cycle;Max_cycle;Signal;HPM_P1;HPM_P2
2022/08/16 00:02:01;;;;;;;9.77;8.83;;;20.10;99.90;;;;;;5033831;28;20653;-65
2022/08/16 00:04:27;;;;;;;9.70;8.83;;;20.00;99.90;;;;;;5031043;28;20187;-65
2022/08/16 00:06:53;;;;;;;8.13;7.33;;;20.00;99.90;;;;;;5032719;28;20668;-65
2022/08/16 00:09:19;;;;;;;9.03;8.37;;;19.80;99.90;;;;;;5032627;28;20294;-65
2022/08/16 00:11:46;;;;;;;9.60;8.80;;;19.80;99.90;;;;;;5032514;28;20207;-66
2022/08/16 00:14:15;;;;;;;10.27;9.33;;;19.80;99.90;;;;;;5031933;28;20194;-65
2022/08/16 00:16:41;;;;;;;11.00;10.10;;;19.80;99.90;;;;;;5032665;28;20167;-65
2022/08/16 00:19:06;;;;;;;8.83;8.13;;;19.80;99.90;;;;;;5032258;28;20223;-66
2022/08/16 00:21:33;;;;;;;9.07;8.27;;;19.70;99.90;;;;;;5032628;28;20254;-66
2022/08/16 00:23:59;;;;;;;8.67;7.87;;;19.70;99.90;;;;;;5033413;28;20168;-66
2022/08/16 00:26:25;;;;;;;7.90;7.33;;;19.60;99.90;;;;;;5033610;28;20263;-65
2022/08/16 00:28:50;;;;;;;9.53;7.67;;;19.60;99.90;;;;;;5033737;28;20198;-66
2022/08/16 00:31:16;;;;;;;8.10;7.30;;;19.50;99.90;;;;;;5033464;28;20274;-66
2022/08/16 00:33:42;;;;;;;7.40;6.70;;;19.50;99.90;;;;;;5032005;28;20222;-66
2022/08/16 00:36:08;;;;;;;8.23;7.50;;;19.50;99.90;;;;;;5033049;28;20618;-65
2022/08/16 00:38:33;;;;;;;7.27;6.73;;;19.40;99.90;;;;;;5033649;28;20164;-65
2022/08/16 00:41:00;;;;;;;6.87;6.37;;;19.40;99.90;;;;;;5033143;28;20180;-66
2022/08/16 00:43:34;;;;;;;7.17;6.67;;;19.40;99.90;;;;;;5033387;28;20598;-65
2022/08/16 00:46:18;;;;;;;7.73;7.13;;;19.40;99.90;;;;;;5032786;28;20236;-66
2022/08/16 00:48:44;;;;;;;7.20;6.30;;;19.40;99.90;;;;;;5048856;28;20258;-65
2022/08/16 00:51:12;;;;;;;6.70;6.20;;;19.30;99.90;;;;;;5048159;28;20203;-65
2022/08/16 00:53:38;;;;;;;8.53;7.73;;;19.20;99.90;;;;;;5032966;28;20218;-64
2022/08/16 00:56:08;;;;;;;7.43;6.77;;;19.20;99.90;;;;;;5048114;28;20266;-65
2022/08/16 00:58:37;;;;;;;8.50;7.60;;;19.20;99.90;;;;;;5033480;28;20214;-65
2022/08/16 01:01:04;;;;;;;7.57;6.97;;;19.10;99.90;;;;;;5032655;28;20207;-65
2022/08/16 01:03:31;;;;;;;8.80;7.93;;;19.20;99.90;;;;;;5031613;28;20280;-65
2022/08/16 01:05:57;;;;;;;8.03;7.03;;;19.10;99.90;;;;;;5032431;28;20179;-65
2022/08/16 01:08:24;;;;;;;7.47;6.87;;;19.10;99.90;;;;;;5031631;28;20542;-65
2022/08/16 01:10:50;;;;;;;7.40;6.90;;;19.00;99.90;;;;;;5031188;28;20182;-65
2022/08/16 01:13:21;;;;;;;7.97;7.37;;;18.90;99.90;;;;;;5048155;28;20215;-66
2022/08/16 01:15:59;;;;;;;9.50;8.70;;;18.90;99.90;;;;;;5030869;28;20238;-65
2022/08/16 01:18:30;;;;;;;9.03;7.97;;;18.90;99.90;;;;;;5031525;28;20638;-66
2022/08/16 01:21:03;;;;;;;11.13;7.63;;;18.90;99.90;;;;;;5030969;28;20548;-65
2022/08/16 01:23:56;;;;;;;7.80;7.10;;;18.90;99.90;;;;;;5047893;28;20620;-66
2022/08/16 01:26:24;;;;;;;9.23;8.53;;;18.90;99.90;;;;;;5032492;28;20282;-65
2022/08/16 01:28:50;;;;;;;9.63;8.83;;;18.90;99.90;;;;;;5032868;28;20172;-66
2022/08/16 01:31:19;;;;;;;10.10;9.20;;;18.90;99.90;;;;;;5047525;28;20211;-66
2022/08/16 01:33:44;;;;;;;8.77;8.07;;;18.90;99.90;;;;;;5032105;28;20179;-65
2022/08/16 01:36:10;;;;;;;9.10;8.30;;;18.80;99.90;;;;;;5030717;28;20202;-65
2022/08/16 01:38:42;;;;;;;9.57;8.77;;;18.80;99.90;;;;;;5031090;28;20645;-65
2022/08/16 01:41:15;;;;;;;9.57;8.87;;;18.80;99.90;;;;;;5047064;28;20215;-66
2022/08/16 01:43:43;;;;;;;10.23;9.30;;;18.80;99.90;;;;;;5047300;28;20671;-65
2022/08/16 01:46:22;;;;;;;7.97;7.37;;;18.80;99.90;;;;;;5047077;28;20582;-66
2022/08/16 01:48:52;;;;;;;9.53;8.20;;;18.80;99.90;;;;;;5032214;28;20513;-66
2022/08/16 01:51:19;;;;;;;8.40;7.60;;;18.80;99.90;;;;;;5030550;28;20657;-65
2022/08/16 01:53:44;;;;;;;8.67;7.83;;;18.80;99.90;;;;;;5031977;28;20176;-66
2022/08/16 01:56:10;;;;;;;8.73;7.93;;;18.80;99.90;;;;;;5046949;28;20532;-65
2022/08/16 01:58:35;;;;;;;8.93;8.13;;;18.80;99.90;;;;;;5032149;28;20255;-65
2022/08/16 02:01:01;;;;;;;8.23;7.57;;;18.80;99.90;;;;;;5031328;28;20560;-66
2022/08/16 02:03:27;;;;;;;9.60;8.57;;;18.70;99.90;;;;;;5031631;28;20222;-65
2022/08/16 02:05:52;;;;;;;10.47;8.73;;;18.70;99.90;;;;;;5047028;28;20699;-65
2022/08/16 02:08:18;;;;;;;9.73;8.83;;;18.70;99.90;;;;;;5047085;28;20207;-65
2022/08/16 02:10:44;;;;;;;9.77;8.83;;;18.70;99.90;;;;;;5030298;28;20629;-65
2022/08/16 02:13:10;;;;;;;10.30;9.43;;;18.70;99.90;;;;;;5030246;28;20644;-65
2022/08/16 02:15:38;;;;;;;10.53;9.37;;;18.70;99.90;;;;;;5031346;28;20199;-66
2022/08/16 02:18:04;;;;;;;9.87;9.17;;;18.60;99.90;;;;;;5031340;28;20175;-66
2022/08/16 02:20:34;;;;;;;9.90;9.10;;;18.60;99.90;;;;;;5031502;28;20175;-66
2022/08/16 02:23:00;;;;;;;10.47;9.67;;;18.60;99.90;;;;;;5031508;28;20187;-66
2022/08/16 02:25:26;;;;;;;12.30;11.07;;;18.60;99.90;;;;;;5046620;28;20703;-66
2022/08/16 02:27:52;;;;;;;11.30;10.10;;;18.50;99.90;;;;;;5028261;28;20203;-65
2022/08/16 02:30:23;;;;;;;10.90;9.90;;;18.50;99.90;;;;;;5031445;28;20593;-66
2022/08/16 02:32:49;;;;;;;11.67;10.57;;;18.50;99.90;;;;;;5011715;28;20578;-67
2022/08/16 02:35:15;;;;;;;10.73;9.87;;;18.50;99.90;;;;;;5010339;28;20176;-67
2022/08/16 02:37:41;;;;;;;12.27;9.33;;;18.50;99.90;;;;;;5030915;28;20172;-67
2022/08/16 02:40:07;;;;;;;9.40;8.37;;;18.40;99.90;;;;;;5029561;28;20175;-65
2022/08/16 02:42:33;;;;;;;10.97;9.87;;;18.40;99.90;;;;;;5031261;28;20710;-64
2022/08/16 02:44:59;;;;;;;10.20;9.10;;;18.40;99.90;;;;;;5029398;28;20269;-66
2022/08/16 02:47:25;;;;;;;11.10;10.00;;;18.40;99.90;;;;;;5030139;28;20175;-65
2022/08/16 02:49:51;;;;;;;10.70;9.63;;;18.40;99.90;;;;;;5029931;28;20699;-66
2022/08/16 02:52:17;;;;;;;10.87;9.80;;;18.30;99.90;;;;;;5029936;28;20211;-68
2022/08/16 02:54:42;;;;;;;11.87;9.20;;;18.30;99.90;;;;;;5029722;28;20198;-67
2022/08/16 02:57:08;;;;;;;10.63;9.63;;;18.30;99.90;;;;;;5030107;28;20237;-67
2022/08/16 02:59:34;;;;;;;10.73;9.63;;;18.30;99.90;;;;;;5031137;28;20187;-67
2022/08/16 03:01:59;;;;;;;9.63;8.83;;;18.30;99.90;;;;;;5030956;28;20199;-65
2022/08/16 03:04:25;;;;;;;10.53;9.53;;;18.30;99.90;;;;;;5030546;28;20180;-66
2022/08/16 03:06:52;;;;;;;11.80;9.00;;;18.30;99.90;;;;;;5029996;28;20183;-66
2022/08/16 03:09:18;;;;;;;10.33;9.33;;;18.30;99.90;;;;;;5029656;28;20314;-65
2022/08/16 03:11:43;;;;;;;10.47;9.47;;;18.30;99.90;;;;;;5046417;28;20751;-65
2022/08/16 03:14:10;;;;;;;9.87;9.00;;;18.30;99.90;;;;;;5029195;28;20576;-66
2022/08/16 03:16:36;;;;;;;11.47;10.30;;;18.30;99.90;;;;;;5031298;28;20205;-65
2022/08/16 03:19:02;;;;;;;11.07;10.03;;;18.30;99.90;;;;;;5030642;28;20736;-65
2022/08/16 03:21:28;;;;;;;11.03;9.90;;;18.20;99.90;;;;;;5031229;28;20203;-66
2022/08/16 03:23:53;;;;;;;10.73;9.73;;;18.20;99.90;;;;;;5030545;28;20374;-66
2022/08/16 03:26:19;;;;;;;11.73;10.63;;;18.20;99.90;;;;;;5029738;28;20179;-66
2022/08/16 03:28:45;;;;;;;10.87;9.83;;;18.20;99.90;;;;;;5030908;28;20186;-66
2022/08/16 03:31:11;;;;;;;10.93;9.83;;;18.20;99.90;;;;;;5046226;28;20200;-66
2022/08/16 03:33:37;;;;;;;10.50;9.37;;;18.20;99.90;;;;;;5045700;28;20218;-66
2022/08/16 03:36:05;;;;;;;10.97;9.80;;;18.10;99.90;;;;;;5030676;28;20180;-66
2022/08/16 03:38:31;;;;;;;10.80;9.77;;;18.10;99.90;;;;;;5032318;28;20171;-67
2022/08/16 03:40:58;;;;;;;10.90;9.83;;;18.10;99.90;;;;;;5034281;28;20633;-66
2022/08/16 03:43:25;;;;;;;11.77;10.17;;;18.10;99.90;;;;;;5049653;28;20218;-66
2022/08/16 03:45:52;;;;;;;11.63;10.53;;;18.10;99.90;;;;;;5029822;28;20188;-66
2022/08/16 03:48:19;;;;;;;12.47;11.40;;;18.00;99.90;;;;;;5014669;28;20182;-65
2022/08/16 03:50:45;;;;;;;11.50;10.40;;;18.00;99.90;;;;;;5032118;28;20645;-66
2022/08/16 03:53:11;;;;;;;13.50;10.80;;;18.00;99.90;;;;;;5034245;28;20196;-66
2022/08/16 03:55:37;;;;;;;12.50;11.40;;;17.90;99.90;;;;;;5032692;28;20237;-65
2022/08/16 03:58:02;;;;;;;10.57;9.67;;;17.90;99.90;;;;;;5034157;28;20194;-66
2022/08/16 04:00:30;;;;;;;11.13;10.23;;;17.90;99.90;;;;;;5034175;28;20259;-66
2022/08/16 04:02:57;;;;;;;12.13;10.93;;;17.90;99.90;;;;;;5034216;28;20571;-66
2022/08/16 04:05:24;;;;;;;11.90;10.80;;;17.80;99.90;;;;;;5033776;28;20317;-66
2022/08/16 04:07:50;;;;;;;11.33;10.33;;;17.80;99.90;;;;;;5034033;28;20180;-65
2022/08/16 04:10:16;;;;;;;10.57;9.47;;;17.80;99.90;;;;;;5032484;28;20194;-66
2022/08/16 04:12:44;;;;;;;12.37;11.27;;;17.80;99.90;;;;;;5032661;28;20211;-65
2022/08/16 04:15:13;;;;;;;12.90;9.90;;;17.70;99.90;;;;;;5048825;28;20183;-65
2022/08/16 04:17:39;;;;;;;11.23;9.93;;;17.70;99.90;;;;;;5034342;28;20568;-66
2022/08/16 04:20:08;;;;;;;15.63;9.53;;;17.70;99.90;;;;;;5033489;28;20183;-66
2022/08/16 04:22:35;;;;;;;10.13;9.33;;;17.70;99.90;;;;;;5033887;28;20555;-66
2022/08/16 04:25:01;;;;;;;12.40;11.20;;;17.70;99.90;;;;;;5033308;28;20190;-66
2022/08/16 04:27:27;;;;;;;11.30;10.40;;;17.70;99.90;;;;;;5034029;28;20238;-66
2022/08/16 04:29:53;;;;;;;12.10;11.03;;;17.70;99.90;;;;;;5048777;28;20183;-66
2022/08/16 04:32:18;;;;;;;12.07;11.07;;;17.60;99.90;;;;;;5048843;28;20219;-66
2022/08/16 04:34:44;;;;;;;13.83;10.80;;;17.60;99.90;;;;;;5033353;28;20625;-66
2022/08/16 04:37:10;;;;;;;10.70;9.70;;;17.50;99.90;;;;;;5048857;28;20187;-66
2022/08/16 04:39:36;;;;;;;13.23;10.63;;;17.40;99.90;;;;;;5032189;28;20176;-65
2022/08/16 04:42:03;;;;;;;12.43;11.30;;;17.40;99.90;;;;;;5060622;22;20608;-64
2022/08/16 04:44:29;;;;;;;12.80;11.50;;;17.50;99.90;;;;;;5026384;28;20537;-64
2022/08/16 04:46:55;;;;;;;12.97;11.73;;;17.50;99.90;;;;;;5033623;28;20171;-64
2022/08/16 04:49:21;;;;;;;12.87;11.47;;;17.50;99.90;;;;;;5022306;28;20645;-64
2022/08/16 04:51:47;;;;;;;12.33;11.13;;;17.50;99.90;;;;;;5013553;28;20307;-65
2022/08/16 04:54:13;;;;;;;13.17;11.97;;;17.60;99.90;;;;;;5012862;28;20178;-64
2022/08/16 04:56:38;;;;;;;12.97;11.73;;;17.60;99.90;;;;;;5013464;28;20641;-64
2022/08/16 04:59:07;;;;;;;11.87;10.80;;;17.70;99.90;;;;;;5013463;28;20168;-65
2022/08/16 05:01:33;;;;;;;13.40;12.10;;;17.70;99.90;;;;;;5013429;28;20188;-65
2022/08/16 05:03:59;;;;;;;12.60;11.50;;;17.80;99.90;;;;;;4993377;28;20165;-65
2022/08/16 05:06:25;;;;;;;12.77;11.57;;;17.80;99.90;;;;;;4993835;28;20311;-64
2022/08/16 05:08:50;;;;;;;12.57;11.47;;;17.90;99.90;;;;;;5012183;28;20188;-64
2022/08/16 05:11:16;;;;;;;14.20;11.63;;;17.90;99.90;;;;;;5013464;28;20513;-64
2022/08/16 05:13:44;;;;;;;14.60;13.23;;;18.00;99.90;;;;;;5012817;28;20214;-64
2022/08/16 05:16:12;;;;;;;19.77;18.40;;;18.00;99.90;;;;;;5013128;28;20176;-65
2022/08/16 05:18:38;;;;;;;15.83;14.70;;;18.00;99.90;;;;;;5013007;28;20180;-65
2022/08/16 05:21:04;;;;;;;15.50;14.17;;;18.10;99.90;;;;;;5013052;28;20539;-64
2022/08/16 05:23:30;;;;;;;19.57;17.87;;;18.10;99.90;;;;;;5012774;28;20204;-65
2022/08/16 05:25:55;;;;;;;18.47;16.90;;;18.20;99.90;;;;;;5013055;28;20540;-65
2022/08/16 05:28:21;;;;;;;16.47;15.07;;;18.30;99.90;;;;;;5012720;28;20184;-65
2022/08/16 05:30:47;;;;;;;12.57;11.47;;;18.40;99.90;;;;;;5013274;28;20176;-65
2022/08/16 05:33:12;;;;;;;14.17;10.23;;;18.50;99.90;;;;;;5012585;28;20239;-66
2022/08/16 05:35:38;;;;;;;10.80;9.77;;;18.60;99.90;;;;;;5012865;28;20177;-65
2022/08/16 05:38:04;;;;;;;11.23;10.03;;;18.70;99.90;;;;;;5012578;28;20203;-65
2022/08/16 05:40:30;;;;;;;13.03;10.20;;;18.70;99.90;;;;;;5012953;28;20179;-65
2022/08/16 05:42:55;;;;;;;11.60;10.63;;;18.80;99.90;;;;;;5012544;28;20224;-66
2022/08/16 05:45:21;;;;;;;9.87;8.97;;;18.90;99.90;;;;;;5012861;28;20245;-66
2022/08/16 05:47:46;;;;;;;10.90;9.90;;;19.00;99.90;;;;;;5012665;28;20176;-66
2022/08/16 05:50:12;;;;;;;9.23;8.17;;;19.10;99.90;;;;;;5015685;28;20188;-66
2022/08/16 05:52:38;;;;;;;10.10;9.20;;;19.10;99.90;;;;;;5028266;28;20204;-66
2022/08/16 05:55:04;;;;;;;11.13;8.73;;;19.20;99.90;;;;;;5012150;28;20172;-65
2022/08/16 05:57:30;;;;;;;10.23;8.47;;;19.30;99.90;;;;;;5012086;28;20219;-66
2022/08/16 05:59:56;;;;;;;10.00;8.90;;;19.40;99.90;;;;;;5012525;28;20647;-65
2022/08/16 06:02:26;;;;;;;10.13;9.33;;;19.50;99.90;;;;;;5011166;28;20218;-66
2022/08/16 06:04:51;;;;;;;10.10;9.10;;;19.60;99.90;;;;;;5012047;28;20676;-66
2022/08/16 06:07:17;;;;;;;10.83;9.83;;;19.70;99.90;;;;;;5012285;28;20287;-65
2022/08/16 06:09:43;;;;;;;9.40;8.50;;;19.70;99.90;;;;;;5012267;28;20176;-66
2022/08/16 06:12:13;;;;;;;10.37;9.23;;;19.90;99.90;;;;;;5011745;28;20212;-66
2022/08/16 06:14:39;;;;;;;9.10;8.27;;;20.10;99.90;;;;;;5011500;28;20179;-66
2022/08/16 06:17:05;;;;;;;8.90;8.10;;;20.30;99.90;;;;;;5011941;28;20176;-66
2022/08/16 06:19:30;;;;;;;10.80;9.90;;;20.70;99.90;;;;;;5011885;28;20547;-65
2022/08/16 06:21:56;;;;;;;8.77;7.88;;;21.00;99.90;;;;;;5011856;28;20200;-66
2022/08/16 06:24:22;;;;;;;8.93;8.02;;;21.50;99.90;;;;;;5011509;28;20184;-66
2022/08/16 06:26:47;;;;;;;11.15;7.15;;;22.00;99.90;;;;;;5012005;28;20176;-66
2022/08/16 06:29:13;;;;;;;7.55;6.95;;;22.40;99.90;;;;;;5011786;28;20203;-66
2022/08/16 06:31:38;;;;;;;8.68;6.25;;;22.80;99.90;;;;;;5012027;28;20661;-65
2022/08/16 06:34:05;;;;;;;7.70;7.00;;;23.10;99.90;;;;;;5011137;28;20182;-65
2022/08/16 06:36:30;;;;;;;12.43;7.15;;;23.30;99.90;;;;;;5011868;28;20180;-66
2022/08/16 06:38:56;;;;;;;7.00;6.30;;;23.70;99.90;;;;;;5011478;28;20227;-65
2022/08/16 06:41:21;;;;;;;6.90;6.20;;;24.10;99.90;;;;;;5011833;28;20692;-65
2022/08/16 06:43:47;;;;;;;10.38;6.38;;;24.40;99.90;;;;;;5011337;28;20211;-66
2022/08/16 06:46:36;;;;;;;9.05;6.00;;;24.80;99.90;;;;;;5011436;28;20203;-65
2022/08/16 06:49:03;;;;;;;5.97;5.38;;;25.10;99.90;;;;;;5011541;28;20184;-66
2022/08/16 06:51:29;;;;;;;6.80;6.25;;;25.20;99.90;;;;;;5011655;28;20588;-66
2022/08/16 06:53:55;;;;;;;7.25;6.65;;;25.30;99.90;;;;;;5011014;28;20199;-66
2022/08/16 06:56:20;;;;;;;6.03;5.47;;;25.40;99.90;;;;;;5011466;28;20172;-66
2022/08/16 06:58:46;;;;;;;5.55;5.00;;;25.70;99.90;;;;;;5011715;28;20183;-66
2022/08/16 07:01:12;;;;;;;5.25;4.80;;;26.00;99.90;;;;;;5011167;28;20250;-66
2022/08/16 07:03:37;;;;;;;7.32;5.18;;;26.20;99.90;;;;;;5011440;28;20203;-67
2022/08/16 07:06:04;;;;;;;4.55;4.20;;;26.50;99.90;;;;;;5011041;28;20542;-66
2022/08/16 07:08:30;;;;;;;5.22;4.82;;;26.60;99.90;;;;;;5011397;28;20212;-66
2022/08/16 07:10:57;;;;;;;6.70;4.95;;;26.70;99.90;;;;;;5011266;28;20216;-66
2022/08/16 07:13:23;;;;;;;6.65;5.15;;;26.80;99.90;;;;;;5012759;28;20219;-65
2022/08/16 07:15:49;;;;;;;4.97;4.47;;;27.00;99.90;;;;;;5015332;28;20634;-66
2022/08/16 07:18:18;;;;;;;5.55;5.13;;;27.30;99.90;;;;;;5022965;28;20364;-66
2022/08/16 07:20:44;;;;;;;5.38;4.97;;;27.50;99.90;;;;;;5031186;28;20650;-65
2022/08/16 07:23:09;;;;;;;5.20;4.80;;;27.90;99.90;;;;;;5014971;28;20291;-65
2022/08/16 07:25:35;;;;;;;5.57;5.05;;;28.10;99.90;;;;;;5014717;28;20166;-65
2022/08/16 07:28:01;;;;;;;5.50;5.10;;;28.40;99.90;;;;;;5015063;28;20188;-66
2022/08/16 07:30:27;;;;;;;6.70;4.30;;;28.50;99.90;;;;;;5014966;28;20180;-66
2022/08/16 07:32:54;;;;;;;6.32;5.88;;;28.90;99.90;;;;;;5014779;28;20211;-65
2022/08/16 07:35:19;;;;;;;6.22;5.68;;;29.00;99.90;;;;;;5014533;28;20168;-66
2022/08/16 07:37:45;;;;;;;5.97;5.57;;;29.10;99.90;;;;;;5014738;28;20176;-66
2022/08/16 07:40:11;;;;;;;6.28;5.78;;;29.10;99.90;;;;;;5014601;28;20258;-66
2022/08/16 07:42:37;;;;;;;5.50;5.10;;;29.20;99.90;;;;;;5014514;28;20239;-66
2022/08/16 07:45:04;;;;;;;5.53;5.03;;;29.30;99.90;;;;;;5014410;28;20219;-66
2022/08/16 07:47:30;;;;;;;5.28;4.88;;;29.30;99.90;;;;;;5014524;28;20181;-65
2022/08/16 07:49:56;;;;;;;5.38;4.97;;;29.30;99.90;;;;;;5014639;28;20191;-66
2022/08/16 07:52:22;;;;;;;5.82;3.90;;;29.40;99.90;;;;;;5014252;28;20305;-66
2022/08/16 07:54:48;;;;;;;4.40;4.00;;;29.60;99.90;;;;;;5015833;28;20176;-66
2022/08/16 07:57:14;;;;;;;4.43;4.00;;;29.90;99.90;;;;;;5013644;28;20176;-63
2022/08/16 07:59:43;;;;;;;4.43;4.13;;;30.20;99.90;;;;;;5014644;28;20180;-63
2022/08/16 08:02:12;;;;;;;5.50;4.43;;;30.50;99.90;;;;;;5013991;28;20200;-64
2022/08/16 08:04:39;;;;;;;4.30;3.85;;;30.70;99.90;;;;;;5013945;28;20231;-63
2022/08/16 08:07:05;;;;;;;7.50;4.30;;;31.10;99.90;;;;;;5014282;28;20195;-64
2022/08/16 08:09:30;;;;;;;4.43;4.13;;;31.50;99.90;;;;;;5014422;28;20224;-63
2022/08/16 08:11:56;;;;;;;5.90;5.40;;;31.90;99.90;;;;;;5013570;28;20215;-64
2022/08/16 08:14:21;;;;;;;5.88;5.30;;;32.00;99.90;;;;;;5013816;28;20650;-64
2022/08/16 08:16:49;;;;;;;6.63;6.13;;;32.20;99.90;;;;;;5014052;28;20197;-63
2022/08/16 08:19:15;;;;;;;7.30;6.65;;;32.40;99.90;;;;;;5014136;28;20172;-64
2022/08/16 08:21:41;;;;;;;7.80;6.85;;;32.40;99.90;;;;;;5013179;28;20303;-63
2022/08/16 08:24:09;;;;;;;5.80;4.40;;;32.70;99.90;;;;;;5013331;28;20172;-64
2022/08/16 08:26:35;;;;;;;5.25;4.85;;;33.00;99.90;;;;;;5013408;28;20621;-64
2022/08/16 08:29:03;;;;;;;4.70;4.18;;;32.90;99.90;;;;;;5013974;28;20183;-64
2022/08/16 08:31:29;;;;;;;4.70;4.30;;;32.70;99.90;;;;;;5013943;28;20237;-64
2022/08/16 08:33:55;;;;;;;4.68;4.25;;;33.00;99.90;;;;;;5011158;28;20669;-64
2022/08/16 08:36:27;;;;;;;5.28;4.80;;;33.30;99.90;;;;;;5013607;28;20192;-64
2022/08/16 08:38:52;;;;;;;5.50;4.65;;;33.30;99.90;;;;;;5013814;28;20192;-65
2022/08/16 08:41:18;;;;;;;5.00;4.55;;;33.30;99.90;;;;;;5013599;28;20172;-65
2022/08/16 08:43:45;;;;;;;5.03;4.53;;;33.20;99.90;;;;;;5013215;28;20215;-64
2022/08/16 08:46:10;;;;;;;4.38;4.07;;;33.30;99.90;;;;;;5013369;28;20188;-64
2022/08/16 08:48:36;;;;;;;5.20;4.82;;;33.40;99.90;;;;;;5013589;28;20184;-65
2022/08/16 08:51:04;;;;;;;5.45;5.10;;;33.40;99.90;;;;;;5013363;28;20180;-65
2022/08/16 08:53:32;;;;;;;6.32;5.30;;;33.30;99.90;;;;;;5013213;28;20208;-64
2022/08/16 08:55:57;;;;;;;5.07;4.65;;;33.50;99.90;;;;;;5012575;28;20187;-64
2022/08/16 08:58:23;;;;;;;5.15;4.75;;;33.70;99.90;;;;;;5013546;28;20168;-65
2022/08/16 09:00:49;;;;;;;5.10;4.60;;;33.60;99.90;;;;;;5012849;28;20178;-65
2022/08/16 09:03:15;;;;;;;4.53;4.10;;;33.70;99.90;;;;;;5012997;28;20262;-65
2022/08/16 09:05:41;;;;;;;5.97;5.13;;;34.20;99.90;;;;;;5016290;28;20205;-64
2022/08/16 09:08:08;;;;;;;5.78;5.07;;;34.50;99.90;;;;;;5013013;28;20223;-65
2022/08/16 09:10:33;;;;;;;7.22;6.03;;;34.70;99.90;;;;;;5012870;28;20239;-64
2022/08/16 09:13:00;;;;;;;5.18;4.78;;;34.80;99.90;;;;;;5012709;28;20215;-65
2022/08/16 09:15:26;;;;;;;4.53;4.03;;;35.20;99.90;;;;;;5012933;28;20183;-65
2022/08/16 09:17:54;;;;;;;5.75;4.47;;;35.50;99.90;;;;;;5012797;28;20629;-65
2022/08/16 09:20:21;;;;;;;6.03;5.43;;;35.80;99.90;;;;;;5012779;28;20173;-64
2022/08/16 09:22:48;;;;;;;6.32;5.75;;;35.80;99.90;;;;;;5011530;28;20254;-66
2022/08/16 09:25:14;;;;;;;4.63;4.30;;;35.50;99.90;;;;;;5012667;28;20175;-65
2022/08/16 09:27:39;;;;;;;6.10;4.80;;;35.10;99.90;;;;;;5013058;28;20184;-65
2022/08/16 09:30:07;;;;;;;8.10;6.22;;;34.80;99.90;;;;;;5012722;28;20172;-65
2022/08/16 09:32:33;;;;;;;7.10;6.47;;;34.30;99.90;;;;;;5012943;28;20203;-64
2022/08/16 09:35:00;;;;;;;6.28;5.70;;;33.60;99.90;;;;;;5012457;28;20191;-64
2022/08/16 09:37:29;;;;;;;8.65;6.10;;;33.30;99.90;;;;;;5010603;28;20386;-64
2022/08/16 09:39:55;;;;;;;6.28;5.68;;;33.40;99.90;;;;;;5032515;28;20663;-64
2022/08/16 09:42:21;;;;;;;6.85;4.93;;;33.60;99.90;;;;;;5030170;28;20215;-65
2022/08/16 09:44:46;;;;;;;7.65;5.30;;;33.80;99.90;;;;;;5012321;28;20183;-65
2022/08/16 09:47:12;;;;;;;8.20;6.53;;;33.90;99.90;;;;;;5012504;28;20204;-65
2022/08/16 09:49:38;;;;;;;6.13;5.63;;;33.90;99.90;;;;;;5012407;28;20190;-65
2022/08/16 09:52:04;;;;;;;6.10;5.18;;;33.70;99.90;;;;;;5012275;28;20230;-65
2022/08/16 09:54:30;;;;;;;6.82;5.78;;;33.90;99.90;;;;;;5012113;28;20645;-66
2022/08/16 09:56:56;;;;;;;6.78;5.03;;;33.90;99.90;;;;;;5012594;28;20590;-66
2022/08/16 09:59:24;;;;;;;5.68;5.07;;;33.80;99.90;;;;;;5012320;28;20214;-66
2022/08/16 10:01:51;;;;;;;7.18;5.55;;;34.20;99.90;;;;;;5012362;28;20224;-66
2022/08/16 10:04:17;;;;;;;6.47;5.97;;;34.40;99.90;;;;;;5011301;28;20184;-64
2022/08/16 10:06:46;;;;;;;7.80;6.30;;;34.50;99.90;;;;;;5012758;28;20180;-66
2022/08/16 10:09:13;;;;;;;6.78;6.10;;;34.70;99.90;;;;;;5012426;28;20172;-65
2022/08/16 10:14:25;;;;;;;7.45;5.80;;;35.20;99.90;;;;;;5011863;28;20612;-66
2022/08/16 10:16:52;;;;;;;7.88;5.63;;;35.60;99.90;;;;;;5011107;28;20223;-65
2022/08/16 10:19:18;;;;;;;8.77;5.65;;;35.70;99.90;;;;;;5012057;28;20227;-65
2022/08/16 10:21:43;;;;;;;9.63;4.60;;;35.70;99.90;;;;;;5011374;28;20575;-65
2022/08/16 10:24:09;;;;;;;6.15;4.38;;;36.00;99.90;;;;;;5011689;28;20258;-65
2022/08/16 10:26:35;;;;;;;5.95;5.50;;;36.50;99.90;;;;;;5012009;28;20187;-66
2022/08/16 10:29:02;;;;;;;5.82;5.25;;;36.90;99.00;;;;;;5011761;28;20204;-65
2022/08/16 10:31:28;;;;;;;6.72;5.57;;;37.00;98.50;;;;;;5011973;28;20204;-64
2022/08/16 10:33:54;;;;;;;7.43;5.25;;;37.20;98.80;;;;;;5011724;28;20268;-65
2022/08/16 10:36:20;;;;;;;7.30;6.60;;;37.20;97.40;;;;;;5011613;28;20212;-65
2022/08/16 10:38:46;;;;;;;5.18;4.85;;;36.70;96.60;;;;;;5011858;28;20172;-65
2022/08/16 10:41:12;;;;;;;7.25;5.55;;;36.50;97.00;;;;;;5011925;28;20222;-65
2022/08/16 10:43:40;;;;;;;5.32;4.53;;;36.60;97.10;;;;;;5012005;28;20183;-65
2022/08/16 10:46:10;;;;;;;6.60;6.10;;;37.30;97.00;;;;;;5011666;28;20199;-65
2022/08/16 10:48:36;;;;;;;7.05;6.55;;;37.80;95.80;;;;;;5011107;28;20184;-66
2022/08/16 10:51:03;;;;;;;6.35;5.80;;;38.00;95.70;;;;;;5011964;28;20172;-66
2022/08/16 10:53:30;;;;;;;8.00;7.38;;;37.90;94.10;;;;;;5011222;28;20286;-66
2022/08/16 10:55:58;;;;;;;6.68;6.20;;;37.00;92.90;;;;;;5011813;28;20173;-65
2022/08/16 10:58:24;;;;;;;6.30;5.63;;;36.50;93.80;;;;;;5011756;28;20653;-66
2022/08/16 11:00:50;;;;;;;10.13;9.43;;;36.40;93.60;;;;;;5011442;28;20188;-65
2022/08/16 11:03:16;;;;;;;10.63;9.80;;;36.20;93.30;;;;;;5010441;28;20199;-64
2022/08/16 11:05:42;;;;;;;7.80;7.20;;;36.20;93.10;;;;;;5010974;28;20179;-67
2022/08/16 11:08:10;;;;;;;7.68;7.10;;;36.40;92.70;;;;;;5011654;28;20180;-66
2022/08/16 11:10:39;;;;;;;6.60;6.10;;;36.80;94.30;;;;;;5011411;28;20179;-66
2022/08/16 11:13:06;;;;;;;5.15;4.55;;;37.30;91.00;;;;;;5011308;28;20218;-66
2022/08/16 11:15:34;;;;;;;8.65;8.15;;;37.30;88.60;;;;;;5011048;28;20181;-65
2022/08/16 11:18:00;;;;;;;8.65;7.85;;;37.20;91.00;;;;;;5011312;28;20191;-66
2022/08/16 11:20:27;;;;;;;7.80;7.15;;;37.40;90.90;;;;;;5011206;28;20549;-66
2022/08/16 11:22:53;;;;;;;5.30;4.80;;;37.50;90.20;;;;;;5011424;28;20204;-66
2022/08/16 11:25:23;;;;;;;5.40;4.07;;;37.80;90.60;;;;;;5010987;28;20263;-66
2022/08/16 11:27:49;;;;;;;4.63;4.22;;;38.10;91.00;;;;;;5011844;28;20168;-66
2022/08/16 11:30:16;;;;;;;4.20;3.90;;;38.50;88.50;;;;;;5010948;28;20180;-65
2022/08/16 11:32:45;;;;;;;5.05;4.55;;;38.90;88.90;;;;;;5011232;28;20204;-65
2022/08/16 11:35:17;;;;;;;6.63;4.28;;;38.70;86.60;;;;;;5010867;28;20538;-65
2022/08/16 11:37:47;;;;;;;5.10;4.60;;;38.50;87.50;;;;;;5011416;28;20223;-67
2022/08/16 11:40:13;;;;;;;5.20;4.70;;;38.30;86.50;;;;;;5010925;28;20263;-66
2022/08/16 11:42:39;;;;;;;6.72;6.32;;;37.80;85.00;;;;;;5011274;28;20204;-66
2022/08/16 11:45:05;;;;;;;5.40;4.90;;;37.60;89.50;;;;;;5010867;28;20227;-65
2022/08/16 11:47:31;;;;;;;5.15;4.75;;;37.60;84.20;;;;;;5011352;28;20544;-65
2022/08/16 11:49:57;;;;;;;6.82;6.40;;;37.20;81.90;;;;;;5010788;28;20195;-64
2022/08/16 11:52:22;;;;;;;8.52;7.93;;;36.70;83.10;;;;;;5010516;28;20207;-65
2022/08/16 11:54:49;;;;;;;7.97;7.43;;;36.70;84.00;;;;;;5009397;28;20184;-66
2022/08/16 11:57:14;;;;;;;5.75;4.50;;;37.00;85.10;;;;;;5023575;28;20656;-65
2022/08/16 11:59:40;;;;;;;6.43;5.85;;;37.20;78.50;;;;;;5018632;28;20177;-65
2022/08/16 12:02:07;;;;;;;7.20;6.68;;;36.90;81.80;;;;;;5013489;28;20206;-66
2022/08/16 12:04:34;;;;;;;9.45;5.63;;;37.10;81.80;;;;;;5014007;28;20183;-65
2022/08/16 12:07:02;;;;;;;5.82;5.43;;;37.60;77.50;;;;;;5015228;28;20194;-66
2022/08/16 12:09:28;;;;;;;4.47;3.63;;;37.70;81.50;;;;;;5012843;28;20216;-65
2022/08/16 12:11:54;;;;;;;3.90;3.60;;;38.40;80.10;;;;;;5014143;28;20282;-66
2022/08/16 12:14:20;;;;;;;4.45;4.05;;;39.20;78.30;;;;;;5013812;28;20271;-66
2022/08/16 12:16:46;;;;;;;4.40;4.03;;;39.30;74.90;;;;;;5014308;28;20178;-67
2022/08/16 12:19:11;;;;;;;5.45;4.85;;;39.60;74.80;;;;;;5014126;28;20250;-65
2022/08/16 12:21:38;;;;;;;5.38;4.88;;;39.40;73.30;;;;;;5013549;28;20661;-65
2022/08/16 12:24:05;;;;;;;4.43;4.03;;;39.00;72.30;;;;;;5013592;28;20191;-66
2022/08/16 12:26:32;;;;;;;5.22;3.60;;;38.60;71.70;;;;;;5013961;28;20271;-65
2022/08/16 12:29:00;;;;;;;5.00;4.53;;;37.90;74.70;;;;;;5013414;28;20214;-65
2022/08/16 12:31:26;;;;;;;9.52;8.60;;;37.00;74.00;;;;;;5013782;28;20519;-65
2022/08/16 12:33:52;;;;;;;9.77;9.07;;;36.30;74.70;;;;;;5013192;28;20200;-65
2022/08/16 12:36:19;;;;;;;9.18;8.38;;;35.80;74.90;;;;;;5013989;28;20514;-65
2022/08/16 12:38:45;;;;;;;6.90;6.15;;;35.30;74.90;;;;;;5013854;28;20164;-65
2022/08/16 12:41:12;;;;;;;5.00;4.60;;;34.90;77.50;;;;;;5013643;28;20259;-65
2022/08/16 12:43:40;;;;;;;7.00;4.00;;;34.80;77.70;;;;;;5013594;28;20525;-66